sensor_id;sensor_type;location;lat;lon;timestamp;P1;durP1;ratioP1;P2;durP2;ratioP2
12758;SDS011;20944;47.048;15.390;2023-04-24T00:00:38;1.83;;;1.20;;
12758;SDS011;20944;47.048;15.390;2023-04-24T00:03:07;1.17;;;1.03;;
12758;SDS011;20944;47.048;15.390;2023-04-24T00:05:35;1.10;;;0.90;;
12758;SDS011;20944;47.048;15.390;2023-04-24T00:08:03;1.03;;;1.00;;
12758;SDS011;20944;47.048;15.390;2023-04-24T00:10:32;1.30;;;0.93;;
12758;SDS011;20944;47.048;15.390;2023-04-24T00:13:00;1.83;;;1.13;;
12758;SDS011;20944;47.048;15.390;2023-04-24T00:15:28;1.30;;;1.20;;
12758;SDS011;20944;47.048;15.390;2023-04-24T00:17:59;1.70;;;1.37;;
12758;SDS011;20944;47.048;15.390;2023-04-24T00:20:27;1.67;;;1.37;;
12758;SDS011;20944;47.048;15.390;2023-04-24T00:22:58;1.77;;;1.27;;
12758;SDS011;20944;47.048;15.390;2023-04-24T00:25:27;2.60;;;1.40;;
12758;SDS011;20944;47.048;15.390;2023-04-24T00:27:55;1.83;;;1.13;;
12758;SDS011;20944;47.048;15.390;2023-04-24T00:30:23;1.50;;;1.27;;
12758;SDS011;20944;47.048;15.390;2023-04-24T00:32:51;2.00;;;0.90;;
12758;SDS011;20944;47.048;15.390;2023-04-24T00:35:21;1.50;;;1.03;;
12758;SDS011;20944;47.048;15.390;2023-04-24T00:37:49;2.13;;;1.00;;
12758;SDS011;20944;47.048;15.390;2023-04-24T00:40:18;3.47;;;1.23;;
12758;SDS011;20944;47.048;15.390;2023-04-24T00:42:46;1.60;;;1.17;;
12758;SDS011;20944;47.048;15.390;2023-04-24T00:45:14;1.53;;;1.03;;
12758;SDS011;20944;47.048;15.390;2023-04-24T00:47:42;3.00;;;1.43;;
12758;SDS011;20944;47.048;15.390;2023-04-24T00:50:11;2.80;;;1.37;;
12758;SDS011;20944;47.048;15.390;2023-04-24T00:52:41;1.17;;;1.00;;
12758;SDS011;20944;47.048;15.390;2023-04-24T00:55:09;2.90;;;1.40;;
12758;SDS011;20944;47.048;15.390;2023-04-24T00:57:38;1.23;;;0.90;;
12758;SDS011;20944;47.048;15.390;2023-04-24T01:00:07;2.03;;;1.10;;
12758;SDS011;20944;47.048;15.390;2023-04-24T01:02:38;2.77;;;1.43;;
12758;SDS011;20944;47.048;15.390;2023-04-24T01:05:10;2.30;;;1.00;;
12758;SDS011;20944;47.048;15.390;2023-04-24T01:07:41;2.10;;;1.47;;
12758;SDS011;20944;47.048;15.390;2023-04-24T01:10:13;1.63;;;1.50;;
12758;SDS011;20944;47.048;15.390;2023-04-24T01:12:44;2.10;;;1.33;;
12758;SDS011;20944;47.048;15.390;2023-04-24T01:15:12;1.70;;;1.43;;
12758;SDS011;20944;47.048;15.390;2023-04-24T01:17:40;1.60;;;1.30;;
12758;SDS011;20944;47.048;15.390;2023-04-24T01:20:09;2.10;;;1.10;;
12758;SDS011;20944;47.048;15.390;2023-04-24T01:22:39;1.40;;;1.00;;
12758;SDS011;20944;47.048;15.390;2023-04-24T01:25:08;1.53;;;1.27;;
12758;SDS011;20944;47.048;15.390;2023-04-24T01:27:36;1.27;;;1.17;;
12758;SDS011;20944;47.048;15.390;2023-04-24T01:30:05;2.20;;;1.63;;
12758;SDS011;20944;47.048;15.390;2023-04-24T01:32:35;1.23;;;1.10;;
12758;SDS011;20944;47.048;15.390;2023-04-24T01:35:04;2.57;;;1.27;;
12758;SDS011;20944;47.048;15.390;2023-04-24T01:37:33;1.53;;;1.23;;
12758;SDS011;20944;47.048;15.390;2023-04-24T01:40:06;1.80;;;1.30;;
12758;SDS011;20944;47.048;15.390;2023-04-24T01:42:35;2.13;;;1.37;;
12758;SDS011;20944;47.048;15.390;2023-04-24T01:45:04;1.57;;;1.47;;
12758;SDS011;20944;47.048;15.390;2023-04-24T01:47:33;2.10;;;1.20;;
12758;SDS011;20944;47.048;15.390;2023-04-24T01:50:01;1.93;;;1.60;;
12758;SDS011;20944;47.048;15.390;2023-04-24T01:52:30;1.57;;;1.30;;
12758;SDS011;20944;47.048;15.390;2023-04-24T01:54:59;1.80;;;1.40;;
12758;SDS011;20944;47.048;15.390;2023-04-24T01:57:29;1.57;;;1.20;;
12758;SDS011;20944;47.048;15.390;2023-04-24T01:59:58;3.83;;;0.90;;
12758;SDS011;20944;47.048;15.390;2023-04-24T02:02:27;1.70;;;1.30;;
12758;SDS011;20944;47.048;15.390;2023-04-24T02:04:56;2.80;;;1.33;;
12758;SDS011;20944;47.048;15.390;2023-04-24T02:07:24;1.80;;;1.33;;
12758;SDS011;20944;47.048;15.390;2023-04-24T02:09:53;1.60;;;1.40;;
12758;SDS011;20944;47.048;15.390;2023-04-24T02:12:21;2.60;;;1.90;;
12758;SDS011;20944;47.048;15.390;2023-04-24T02:14:51;2.03;;;1.50;;
12758;SDS011;20944;47.048;15.390;2023-04-24T02:17:19;2.33;;;1.60;;
12758;SDS011;20944;47.048;15.390;2023-04-24T02:19:48;2.00;;;1.73;;
12758;SDS011;20944;47.048;15.390;2023-04-24T02:22:16;2.43;;;1.87;;
12758;SDS011;20944;47.048;15.390;2023-04-24T02:24:44;3.77;;;1.70;;
12758;SDS011;20944;47.048;15.390;2023-04-24T02:27:12;2.30;;;1.63;;
12758;SDS011;20944;47.048;15.390;2023-04-24T02:29:41;2.00;;;1.77;;
12758;SDS011;20944;47.048;15.390;2023-04-24T02:32:11;5.17;;;2.37;;
12758;SDS011;20944;47.048;15.390;2023-04-24T02:34:42;2.53;;;2.07;;
12758;SDS011;20944;47.048;15.390;2023-04-24T02:37:10;2.07;;;1.53;;
12758;SDS011;20944;47.048;15.390;2023-04-24T02:39:38;2.27;;;1.50;;
12758;SDS011;20944;47.048;15.390;2023-04-24T02:42:07;2.30;;;2.10;;
12758;SDS011;20944;47.048;15.390;2023-04-24T02:44:35;1.47;;;1.30;;
12758;SDS011;20944;47.048;15.390;2023-04-24T02:47:03;2.57;;;1.60;;
12758;SDS011;20944;47.048;15.390;2023-04-24T02:49:33;2.87;;;1.60;;
12758;SDS011;20944;47.048;15.390;2023-04-24T02:52:01;2.50;;;1.63;;
12758;SDS011;20944;47.048;15.390;2023-04-24T02:54:30;2.27;;;1.53;;
12758;SDS011;20944;47.048;15.390;2023-04-24T02:56:58;4.03;;;1.40;;
12758;SDS011;20944;47.048;15.390;2023-04-24T02:59:27;1.53;;;1.40;;
12758;SDS011;20944;47.048;15.390;2023-04-24T03:01:55;2.40;;;1.70;;
12758;SDS011;20944;47.048;15.390;2023-04-24T03:04:24;2.50;;;1.63;;
12758;SDS011;20944;47.048;15.390;2023-04-24T03:06:54;3.13;;;1.77;;
12758;SDS011;20944;47.048;15.390;2023-04-24T03:09:22;1.67;;;1.50;;
12758;SDS011;20944;47.048;15.390;2023-04-24T03:11:51;3.47;;;1.53;;
12758;SDS011;20944;47.048;15.390;2023-04-24T03:14:19;2.77;;;1.60;;
12758;SDS011;20944;47.048;15.390;2023-04-24T03:16:47;2.70;;;1.57;;
12758;SDS011;20944;47.048;15.390;2023-04-24T03:19:15;3.07;;;1.70;;
12758;SDS011;20944;47.048;15.390;2023-04-24T03:21:43;2.07;;;1.60;;
12758;SDS011;20944;47.048;15.390;2023-04-24T03:24:13;2.53;;;1.57;;
12758;SDS011;20944;47.048;15.390;2023-04-24T03:26:41;1.57;;;1.47;;
12758;SDS011;20944;47.048;15.390;2023-04-24T03:29:09;2.23;;;1.70;;
12758;SDS011;20944;47.048;15.390;2023-04-24T03:31:37;2.97;;;1.80;;
12758;SDS011;20944;47.048;15.390;2023-04-24T03:34:06;1.70;;;1.50;;
12758;SDS011;20944;47.048;15.390;2023-04-24T03:36:34;1.47;;;1.30;;
12758;SDS011;20944;47.048;15.390;2023-04-24T03:39:02;1.93;;;1.40;;
12758;SDS011;20944;47.048;15.390;2023-04-24T03:41:33;3.00;;;1.60;;
12758;SDS011;20944;47.048;15.390;2023-04-24T03:44:01;2.17;;;1.93;;
12758;SDS011;20944;47.048;15.390;2023-04-24T03:46:29;2.43;;;2.23;;
12758;SDS011;20944;47.048;15.390;2023-04-24T03:48:58;2.27;;;1.80;;
12758;SDS011;20944;47.048;15.390;2023-04-24T03:51:26;3.10;;;2.10;;
12758;SDS011;20944;47.048;15.390;2023-04-24T03:53:56;2.17;;;1.97;;
12758;SDS011;20944;47.048;15.390;2023-04-24T03:56:24;5.73;;;2.33;;
12758;SDS011;20944;47.048;15.390;2023-04-24T03:58:54;2.17;;;1.50;;
12758;SDS011;20944;47.048;15.390;2023-04-24T04:01:22;2.80;;;2.40;;
12758;SDS011;20944;47.048;15.390;2023-04-24T04:03:51;4.13;;;1.77;;
12758;SDS011;20944;47.048;15.390;2023-04-24T04:06:19;1.63;;;1.47;;
12758;SDS011;20944;47.048;15.390;2023-04-24T04:08:47;1.83;;;1.20;;
12758;SDS011;20944;47.048;15.390;2023-04-24T04:11:16;2.13;;;1.47;;
12758;SDS011;20944;47.048;15.390;2023-04-24T04:13:44;2.00;;;1.47;;
12758;SDS011;20944;47.048;15.390;2023-04-24T04:16:15;2.27;;;1.33;;
12758;SDS011;20944;47.048;15.390;2023-04-24T04:18:44;2.07;;;1.60;;
12758;SDS011;20944;47.048;15.390;2023-04-24T04:21:12;2.20;;;1.80;;
12758;SDS011;20944;47.048;15.390;2023-04-24T04:23:41;2.83;;;2.23;;
12758;SDS011;20944;47.048;15.390;2023-04-24T04:26:09;2.80;;;1.90;;
12758;SDS011;20944;47.048;15.390;2023-04-24T04:28:38;3.53;;;2.03;;
12758;SDS011;20944;47.048;15.390;2023-04-24T04:31:07;3.03;;;2.30;;
12758;SDS011;20944;47.048;15.390;2023-04-24T04:33:37;2.20;;;1.90;;
12758;SDS011;20944;47.048;15.390;2023-04-24T04:36:05;2.93;;;2.20;;
12758;SDS011;20944;47.048;15.390;2023-04-24T04:38:35;2.50;;;2.10;;
12758;SDS011;20944;47.048;15.390;2023-04-24T04:41:03;2.50;;;2.13;;
12758;SDS011;20944;47.048;15.390;2023-04-24T04:43:32;3.00;;;2.10;;
12758;SDS011;20944;47.048;15.390;2023-04-24T04:46:01;4.30;;;2.00;;
12758;SDS011;20944;47.048;15.390;2023-04-24T04:48:30;4.40;;;2.17;;
12758;SDS011;20944;47.048;15.390;2023-04-24T04:51:00;3.30;;;1.93;;
12758;SDS011;20944;47.048;15.390;2023-04-24T04:53:28;2.33;;;1.63;;
12758;SDS011;20944;47.048;15.390;2023-04-24T04:55:57;3.30;;;1.73;;
12758;SDS011;20944;47.048;15.390;2023-04-24T04:58:26;1.60;;;1.50;;
12758;SDS011;20944;47.048;15.390;2023-04-24T05:00:54;2.70;;;1.73;;
12758;SDS011;20944;47.048;15.390;2023-04-24T05:03:23;3.57;;;2.03;;
12758;SDS011;20944;47.048;15.390;2023-04-24T05:05:52;3.57;;;1.87;;
12758;SDS011;20944;47.048;15.390;2023-04-24T05:08:22;2.60;;;2.30;;
12758;SDS011;20944;47.048;15.390;2023-04-24T05:13:26;3.73;;;2.63;;
12758;SDS011;20944;47.048;15.390;2023-04-24T05:16:06;3.73;;;2.17;;
12758;SDS011;20944;47.048;15.390;2023-04-24T05:18:35;3.37;;;2.67;;
12758;SDS011;20944;47.048;15.390;2023-04-24T05:21:07;3.93;;;2.77;;
12758;SDS011;20944;47.048;15.390;2023-04-24T05:23:37;4.43;;;2.43;;
12758;SDS011;20944;47.048;15.390;2023-04-24T05:26:05;4.17;;;2.43;;
12758;SDS011;20944;47.048;15.390;2023-04-24T05:28:33;3.80;;;2.87;;
12758;SDS011;20944;47.048;15.390;2023-04-24T05:31:03;4.73;;;2.43;;
12758;SDS011;20944;47.048;15.390;2023-04-24T05:33:31;4.57;;;2.40;;
12758;SDS011;20944;47.048;15.390;2023-04-24T05:36:00;5.90;;;2.57;;
12758;SDS011;20944;47.048;15.390;2023-04-24T05:38:28;3.53;;;2.77;;
12758;SDS011;20944;47.048;15.390;2023-04-24T05:40:57;4.77;;;2.87;;
12758;SDS011;20944;47.048;15.390;2023-04-24T05:43:26;4.63;;;2.13;;
12758;SDS011;20944;47.048;15.390;2023-04-24T05:45:54;6.33;;;2.93;;
12758;SDS011;20944;47.048;15.390;2023-04-24T05:48:22;5.13;;;2.80;;
12758;SDS011;20944;47.048;15.390;2023-04-24T05:50:50;3.53;;;2.60;;
12758;SDS011;20944;47.048;15.390;2023-04-24T05:53:19;3.27;;;2.40;;
12758;SDS011;20944;47.048;15.390;2023-04-24T05:55:47;5.17;;;2.50;;
12758;SDS011;20944;47.048;15.390;2023-04-24T05:58:17;5.07;;;2.83;;
12758;SDS011;20944;47.048;15.390;2023-04-24T06:00:45;4.57;;;2.90;;
12758;SDS011;20944;47.048;15.390;2023-04-24T06:03:14;3.87;;;3.03;;
12758;SDS011;20944;47.048;15.390;2023-04-24T06:05:42;3.90;;;2.73;;
12758;SDS011;20944;47.048;15.390;2023-04-24T06:08:10;3.93;;;3.00;;
12758;SDS011;20944;47.048;15.390;2023-04-24T06:10:39;6.47;;;3.00;;
12758;SDS011;20944;47.048;15.390;2023-04-24T06:13:07;4.13;;;3.10;;
12758;SDS011;20944;47.048;15.390;2023-04-24T06:15:37;6.13;;;3.10;;
12758;SDS011;20944;47.048;15.390;2023-04-24T06:18:05;3.67;;;2.63;;
12758;SDS011;20944;47.048;15.390;2023-04-24T06:20:34;5.43;;;3.20;;
12758;SDS011;20944;47.048;15.390;2023-04-24T06:23:02;4.50;;;3.17;;
12758;SDS011;20944;47.048;15.390;2023-04-24T06:25:30;3.70;;;2.83;;
12758;SDS011;20944;47.048;15.390;2023-04-24T06:27:59;4.83;;;2.97;;
12758;SDS011;20944;47.048;15.390;2023-04-24T06:30:28;5.53;;;3.50;;
12758;SDS011;20944;47.048;15.390;2023-04-24T06:32:57;5.37;;;3.83;;
12758;SDS011;20944;47.048;15.390;2023-04-24T06:35:38;4.50;;;3.50;;
12758;SDS011;20944;47.048;15.390;2023-04-24T06:38:06;5.67;;;3.30;;
12758;SDS011;20944;47.048;15.390;2023-04-24T06:40:34;5.17;;;3.27;;
12758;SDS011;20944;47.048;15.390;2023-04-24T06:43:03;4.77;;;3.07;;
12758;SDS011;20944;47.048;15.390;2023-04-24T06:45:32;8.43;;;3.20;;
12758;SDS011;20944;47.048;15.390;2023-04-24T06:48:02;5.40;;;3.83;;
12758;SDS011;20944;47.048;15.390;2023-04-24T06:50:30;3.93;;;3.13;;
12758;SDS011;20944;47.048;15.390;2023-04-24T06:52:58;5.20;;;2.53;;
12758;SDS011;20944;47.048;15.390;2023-04-24T06:55:27;4.73;;;3.20;;
12758;SDS011;20944;47.048;15.390;2023-04-24T06:57:55;4.67;;;3.37;;
12758;SDS011;20944;47.048;15.390;2023-04-24T07:00:23;5.07;;;3.23;;
12758;SDS011;20944;47.048;15.390;2023-04-24T07:02:51;4.13;;;3.57;;
12758;SDS011;20944;47.048;15.390;2023-04-24T07:05:21;4.00;;;3.30;;
12758;SDS011;20944;47.048;15.390;2023-04-24T07:07:50;4.83;;;3.43;;
12758;SDS011;20944;47.048;15.390;2023-04-24T07:10:18;3.80;;;2.80;;
12758;SDS011;20944;47.048;15.390;2023-04-24T07:12:48;3.93;;;2.97;;
12758;SDS011;20944;47.048;15.390;2023-04-24T07:15:16;3.93;;;3.40;;
12758;SDS011;20944;47.048;15.390;2023-04-24T07:17:44;5.00;;;3.57;;
12758;SDS011;20944;47.048;15.390;2023-04-24T07:20:12;5.53;;;3.10;;
12758;SDS011;20944;47.048;15.390;2023-04-24T07:22:42;7.30;;;2.70;;
12758;SDS011;20944;47.048;15.390;2023-04-24T07:25:11;3.77;;;2.80;;
12758;SDS011;20944;47.048;15.390;2023-04-24T07:27:39;5.80;;;3.10;;
12758;SDS011;20944;47.048;15.390;2023-04-24T07:30:07;5.73;;;2.27;;
12758;SDS011;20944;47.048;15.390;2023-04-24T07:32:36;4.10;;;2.90;;
12758;SDS011;20944;47.048;15.390;2023-04-24T07:35:05;5.47;;;3.50;;
12758;SDS011;20944;47.048;15.390;2023-04-24T07:37:33;4.30;;;2.50;;
12758;SDS011;20944;47.048;15.390;2023-04-24T07:40:03;3.27;;;2.10;;
12758;SDS011;20944;47.048;15.390;2023-04-24T07:42:32;2.60;;;2.17;;
12758;SDS011;20944;47.048;15.390;2023-04-24T07:45:01;3.83;;;2.47;;
12758;SDS011;20944;47.048;15.390;2023-04-24T07:47:29;3.13;;;2.03;;
12758;SDS011;20944;47.048;15.390;2023-04-24T07:49:58;4.03;;;2.57;;
12758;SDS011;20944;47.048;15.390;2023-04-24T07:52:26;4.83;;;3.30;;
12758;SDS011;20944;47.048;15.390;2023-04-24T07:54:55;7.57;;;4.37;;
12758;SDS011;20944;47.048;15.390;2023-04-24T07:57:26;4.37;;;3.27;;
12758;SDS011;20944;47.048;15.390;2023-04-24T07:59:54;4.40;;;2.80;;
12758;SDS011;20944;47.048;15.390;2023-04-24T08:02:22;5.40;;;3.77;;
12758;SDS011;20944;47.048;15.390;2023-04-24T08:04:53;7.53;;;4.03;;
12758;SDS011;20944;47.048;15.390;2023-04-24T08:07:23;4.97;;;3.30;;
12758;SDS011;20944;47.048;15.390;2023-04-24T08:09:51;3.77;;;2.73;;
12758;SDS011;20944;47.048;15.390;2023-04-24T08:12:20;3.50;;;2.13;;
12758;SDS011;20944;47.048;15.390;2023-04-24T08:14:50;3.07;;;1.67;;
12758;SDS011;20944;47.048;15.390;2023-04-24T08:17:18;2.53;;;1.50;;
12758;SDS011;20944;47.048;15.390;2023-04-24T08:19:46;1.20;;;1.10;;
12758;SDS011;20944;47.048;15.390;2023-04-24T08:22:15;1.50;;;1.40;;
12758;SDS011;20944;47.048;15.390;2023-04-24T08:24:43;4.13;;;1.30;;
12758;SDS011;20944;47.048;15.390;2023-04-24T08:27:11;1.40;;;1.30;;
12758;SDS011;20944;47.048;15.390;2023-04-24T08:29:39;1.70;;;1.33;;
12758;SDS011;20944;47.048;15.390;2023-04-24T08:32:09;3.73;;;1.10;;
12758;SDS011;20944;47.048;15.390;2023-04-24T08:34:37;2.13;;;1.53;;
12758;SDS011;20944;47.048;15.390;2023-04-24T08:37:06;2.93;;;1.23;;
12758;SDS011;20944;47.048;15.390;2023-04-24T08:39:34;1.50;;;1.40;;
12758;SDS011;20944;47.048;15.390;2023-04-24T08:42:02;1.80;;;1.23;;
12758;SDS011;20944;47.048;15.390;2023-04-24T08:44:35;1.27;;;1.00;;
12758;SDS011;20944;47.048;15.390;2023-04-24T08:47:04;1.33;;;1.23;;
12758;SDS011;20944;47.048;15.390;2023-04-24T08:49:34;1.43;;;0.90;;
12758;SDS011;20944;47.048;15.390;2023-04-24T08:52:04;1.67;;;1.57;;
12758;SDS011;20944;47.048;15.390;2023-04-24T08:54:33;2.50;;;1.53;;
12758;SDS011;20944;47.048;15.390;2023-04-24T08:57:03;1.17;;;0.80;;
12758;SDS011;20944;47.048;15.390;2023-04-24T08:59:31;1.87;;;1.10;;
12758;SDS011;20944;47.048;15.390;2023-04-24T09:02:00;2.30;;;1.20;;
12758;SDS011;20944;47.048;15.390;2023-04-24T09:04:31;2.10;;;1.00;;
12758;SDS011;20944;47.048;15.390;2023-04-24T09:07:04;3.07;;;1.37;;
12758;SDS011;20944;47.048;15.390;2023-04-24T09:09:34;2.37;;;1.33;;
12758;SDS011;20944;47.048;15.390;2023-04-24T09:12:03;2.17;;;1.40;;
12758;SDS011;20944;47.048;15.390;2023-04-24T09:14:31;1.47;;;1.10;;
12758;SDS011;20944;47.048;15.390;2023-04-24T09:17:02;2.30;;;1.50;;
12758;SDS011;20944;47.048;15.390;2023-04-24T09:19:31;2.07;;;1.30;;
12758;SDS011;20944;47.048;15.390;2023-04-24T09:22:00;2.13;;;1.60;;
12758;SDS011;20944;47.048;15.390;2023-04-24T09:24:33;2.53;;;1.67;;
12758;SDS011;20944;47.048;15.390;2023-04-24T09:27:02;1.40;;;0.90;;
12758;SDS011;20944;47.048;15.390;2023-04-24T09:29:31;0.90;;;0.63;;
12758;SDS011;20944;47.048;15.390;2023-04-24T09:31:59;1.20;;;0.50;;
12758;SDS011;20944;47.048;15.390;2023-04-24T09:34:48;0.30;;;0.30;;
12758;SDS011;20944;47.048;15.390;2023-04-24T09:37:28;0.40;;;0.30;;
12758;SDS011;20944;47.048;15.390;2023-04-24T09:40:09;0.37;;;0.20;;
12758;SDS011;20944;47.048;15.390;2023-04-24T09:42:39;0.20;;;0.20;;
12758;SDS011;20944;47.048;15.390;2023-04-24T09:45:10;0.10;;;0.10;;
12758;SDS011;20944;47.048;15.390;2023-04-24T09:47:42;1.47;;;0.10;;
12758;SDS011;20944;47.048;15.390;2023-04-24T09:50:12;1.90;;;0.30;;
12758;SDS011;20944;47.048;15.390;2023-04-24T09:52:44;0.67;;;0.20;;
12758;SDS011;20944;47.048;15.390;2023-04-24T09:55:15;1.90;;;0.10;;
12758;SDS011;20944;47.048;15.390;2023-04-24T09:57:51;0.10;;;0.10;;
12758;SDS011;20944;47.048;15.390;2023-04-24T10:00:24;0.20;;;0.20;;
12758;SDS011;20944;47.048;15.390;2023-04-24T10:02:54;0.10;;;0.10;;
12758;SDS011;20944;47.048;15.390;2023-04-24T10:05:24;0.13;;;0.10;;
12758;SDS011;20944;47.048;15.390;2023-04-24T10:07:59;0.00;;;0.00;;
12758;SDS011;20944;47.048;15.390;2023-04-24T10:10:29;0.00;;;0.00;;
12758;SDS011;20944;47.048;15.390;2023-04-24T10:12:58;0.10;;;0.10;;
12758;SDS011;20944;47.048;15.390;2023-04-24T10:15:27;0.00;;;0.00;;
12758;SDS011;20944;47.048;15.390;2023-04-24T10:17:55;0.30;;;0.10;;
12758;SDS011;20944;47.048;15.390;2023-04-24T10:20:26;0.00;;;0.00;;
12758;SDS011;20944;47.048;15.390;2023-04-24T10:22:58;0.60;;;0.10;;
12758;SDS011;20944;47.048;15.390;2023-04-24T10:25:28;0.60;;;0.10;;
12758;SDS011;20944;47.048;15.390;2023-04-24T10:27:58;0.10;;;0.10;;
12758;SDS011;20944;47.048;15.390;2023-04-24T10:30:28;0.10;;;0.10;;
12758;SDS011;20944;47.048;15.390;2023-04-24T10:32:57;0.13;;;0.13;;
12758;SDS011;20944;47.048;15.390;2023-04-24T10:35:27;0.10;;;0.10;;
12758;SDS011;20944;47.048;15.390;2023-04-24T10:38:01;0.20;;;0.10;;
12758;SDS011;20944;47.048;15.390;2023-04-24T10:40:33;1.67;;;0.10;;
12758;SDS011;20944;47.048;15.390;2023-04-24T10:43:03;0.20;;;0.10;;
12758;SDS011;20944;47.048;15.390;2023-04-24T10:45:34;0.10;;;0.10;;
12758;SDS011;20944;47.048;15.390;2023-04-24T10:48:03;0.20;;;0.20;;
12758;SDS011;20944;47.048;15.390;2023-04-24T10:50:44;0.23;;;0.23;;
12758;SDS011;20944;47.048;15.390;2023-04-24T10:53:15;0.20;;;0.20;;
12758;SDS011;20944;47.048;15.390;2023-04-24T10:55:46;0.13;;;0.13;;
12758;SDS011;20944;47.048;15.390;2023-04-24T10:58:15;0.13;;;0.13;;
12758;SDS011;20944;47.048;15.390;2023-04-24T11:00:44;0.20;;;0.20;;
12758;SDS011;20944;47.048;15.390;2023-04-24T11:03:25;0.23;;;0.23;;
12758;SDS011;20944;47.048;15.390;2023-04-24T11:05:58;1.10;;;0.30;;
12758;SDS011;20944;47.048;15.390;2023-04-24T11:08:30;0.20;;;0.20;;
12758;SDS011;20944;47.048;15.390;2023-04-24T11:11:01;0.40;;;0.40;;
12758;SDS011;20944;47.048;15.390;2023-04-24T11:16:38;0.40;;;0.40;;
12758;SDS011;20944;47.048;15.390;2023-04-24T11:19:18;0.30;;;0.20;;
12758;SDS011;20944;47.048;15.390;2023-04-24T11:21:54;0.20;;;0.20;;
12758;SDS011;20944;47.048;15.390;2023-04-24T11:24:26;0.33;;;0.20;;
12758;SDS011;20944;47.048;15.390;2023-04-24T11:26:55;0.30;;;0.22;;
12758;SDS011;20944;47.048;15.390;2023-04-24T11:32:19;0.25;;;0.10;;
12758;SDS011;20944;47.048;15.390;2023-04-24T11:34:54;0.10;;;0.10;;
12758;SDS011;20944;47.048;15.390;2023-04-24T11:37:24;0.20;;;0.03;;
12758;SDS011;20944;47.048;15.390;2023-04-24T11:39:56;0.10;;;0.10;;
12758;SDS011;20944;47.048;15.390;2023-04-24T11:42:27;0.00;;;0.00;;
12758;SDS011;20944;47.048;15.390;2023-04-24T11:44:56;0.10;;;0.10;;
12758;SDS011;20944;47.048;15.390;2023-04-24T11:47:28;0.10;;;0.10;;
12758;SDS011;20944;47.048;15.390;2023-04-24T11:49:57;0.47;;;0.10;;
12758;SDS011;20944;47.048;15.390;2023-04-24T11:52:27;0.10;;;0.10;;
12758;SDS011;20944;47.048;15.390;2023-04-24T11:54:58;0.10;;;0.10;;
12758;SDS011;20944;47.048;15.390;2023-04-24T11:57:27;0.10;;;0.10;;
12758;SDS011;20944;47.048;15.390;2023-04-24T12:00:00;0.20;;;0.10;;
12758;SDS011;20944;47.048;15.390;2023-04-24T12:02:30;0.10;;;0.10;;
12758;SDS011;20944;47.048;15.390;2023-04-24T12:04:59;1.75;;;0.10;;
12758;SDS011;20944;47.048;15.390;2023-04-24T12:07:27;0.00;;;0.00;;
12758;SDS011;20944;47.048;15.390;2023-04-24T12:09:56;0.10;;;0.10;;
12758;SDS011;20944;47.048;15.390;2023-04-24T12:12:28;0.25;;;0.20;;
12758;SDS011;20944;47.048;15.390;2023-04-24T12:14:56;0.15;;;0.10;;
12758;SDS011;20944;47.048;15.390;2023-04-24T12:17:27;0.10;;;0.10;;
12758;SDS011;20944;47.048;15.390;2023-04-24T12:19:57;0.10;;;0.10;;
12758;SDS011;20944;47.048;15.390;2023-04-24T12:22:36;0.10;;;0.10;;
12758;SDS011;20944;47.048;15.390;2023-04-24T12:25:12;0.15;;;0.15;;
12758;SDS011;20944;47.048;15.390;2023-04-24T12:27:42;0.22;;;0.10;;
12758;SDS011;20944;47.048;15.390;2023-04-24T12:30:12;0.10;;;0.10;;
12758;SDS011;20944;47.048;15.390;2023-04-24T12:32:41;0.10;;;0.10;;
12758;SDS011;20944;47.048;15.390;2023-04-24T12:35:11;0.88;;;0.25;;
12758;SDS011;20944;47.048;15.390;2023-04-24T12:37:41;0.10;;;0.10;;
12758;SDS011;20944;47.048;15.390;2023-04-24T12:40:13;0.10;;;0.10;;
12758;SDS011;20944;47.048;15.390;2023-04-24T12:42:44;0.10;;;0.10;;
12758;SDS011;20944;47.048;15.390;2023-04-24T12:45:14;0.30;;;0.10;;
12758;SDS011;20944;47.048;15.390;2023-04-24T12:47:44;0.00;;;0.00;;
12758;SDS011;20944;47.048;15.390;2023-04-24T12:50:13;0.10;;;0.10;;
12758;SDS011;20944;47.048;15.390;2023-04-24T12:52:43;0.17;;;0.10;;
12758;SDS011;20944;47.048;15.390;2023-04-24T12:55:12;0.10;;;0.10;;
12758;SDS011;20944;47.048;15.390;2023-04-24T12:57:41;0.25;;;0.20;;
12758;SDS011;20944;47.048;15.390;2023-04-24T13:00:11;0.10;;;0.10;;
12758;SDS011;20944;47.048;15.390;2023-04-24T13:02:40;0.77;;;0.10;;
12758;SDS011;20944;47.048;15.390;2023-04-24T13:05:08;1.90;;;0.10;;
12758;SDS011;20944;47.048;15.390;2023-04-24T13:07:38;0.22;;;0.17;;
12758;SDS011;20944;47.048;15.390;2023-04-24T13:10:06;0.10;;;0.10;;
12758;SDS011;20944;47.048;15.390;2023-04-24T13:12:35;0.35;;;0.20;;
12758;SDS011;20944;47.048;15.390;2023-04-24T13:15:04;0.77;;;0.20;;
12758;SDS011;20944;47.048;15.390;2023-04-24T13:17:34;0.15;;;0.15;;
12758;SDS011;20944;47.048;15.390;2023-04-24T13:20:04;0.10;;;0.10;;
12758;SDS011;20944;47.048;15.390;2023-04-24T13:22:33;0.10;;;0.10;;
12758;SDS011;20944;47.048;15.390;2023-04-24T13:25:02;0.88;;;0.10;;
12758;SDS011;20944;47.048;15.390;2023-04-24T13:27:32;0.05;;;0.05;;
12758;SDS011;20944;47.048;15.390;2023-04-24T13:30:00;0.10;;;0.10;;
12758;SDS011;20944;47.048;15.390;2023-04-24T13:32:29;0.10;;;0.10;;
12758;SDS011;20944;47.048;15.390;2023-04-24T13:34:59;0.10;;;0.10;;
12758;SDS011;20944;47.048;15.390;2023-04-24T13:37:27;0.10;;;0.10;;
12758;SDS011;20944;47.048;15.390;2023-04-24T13:39:55;0.00;;;0.00;;
12758;SDS011;20944;47.048;15.390;2023-04-24T13:42:23;1.30;;;0.22;;
12758;SDS011;20944;47.048;15.390;2023-04-24T13:44:51;0.10;;;0.10;;
12758;SDS011;20944;47.048;15.390;2023-04-24T13:47:20;0.10;;;0.10;;
12758;SDS011;20944;47.048;15.390;2023-04-24T13:49:48;0.30;;;0.10;;
12758;SDS011;20944;47.048;15.390;2023-04-24T13:52:18;0.10;;;0.10;;
12758;SDS011;20944;47.048;15.390;2023-04-24T13:54:46;0.10;;;0.10;;
12758;SDS011;20944;47.048;15.390;2023-04-24T13:57:15;0.10;;;0.10;;
12758;SDS011;20944;47.048;15.390;2023-04-24T13:59:44;0.25;;;0.20;;
12758;SDS011;20944;47.048;15.390;2023-04-24T14:02:13;0.10;;;0.10;;
12758;SDS011;20944;47.048;15.390;2023-04-24T14:04:41;0.30;;;0.15;;
12758;SDS011;20944;47.048;15.390;2023-04-24T14:07:09;0.10;;;0.10;;
12758;SDS011;20944;47.048;15.390;2023-04-24T14:09:39;0.17;;;0.17;;
12758;SDS011;20944;47.048;15.390;2023-04-24T14:12:07;0.10;;;0.10;;
12758;SDS011;20944;47.048;15.390;2023-04-24T14:14:35;0.17;;;0.17;;
12758;SDS011;20944;47.048;15.390;2023-04-24T14:17:04;1.85;;;0.20;;
12758;SDS011;20944;47.048;15.390;2023-04-24T14:19:33;0.52;;;0.20;;
12758;SDS011;20944;47.048;15.390;2023-04-24T14:22:01;0.90;;;0.20;;
12758;SDS011;20944;47.048;15.390;2023-04-24T14:24:29;0.35;;;0.13;;
12758;SDS011;20944;47.048;15.390;2023-04-24T14:26:59;0.10;;;0.10;;
12758;SDS011;20944;47.048;15.390;2023-04-24T14:29:27;0.50;;;0.30;;
12758;SDS011;20944;47.048;15.390;2023-04-24T14:31:56;1.33;;;0.25;;
12758;SDS011;20944;47.048;15.390;2023-04-24T14:34:24;1.08;;;0.20;;
12758;SDS011;20944;47.048;15.390;2023-04-24T14:36:52;0.10;;;0.10;;
12758;SDS011;20944;47.048;15.390;2023-04-24T14:39:21;0.20;;;0.20;;
12758;SDS011;20944;47.048;15.390;2023-04-24T14:41:49;0.63;;;0.20;;
12758;SDS011;20944;47.048;15.390;2023-04-24T14:44:19;0.20;;;0.20;;
12758;SDS011;20944;47.048;15.390;2023-04-24T14:46:48;0.20;;;0.20;;
12758;SDS011;20944;47.048;15.390;2023-04-24T14:49:16;0.47;;;0.10;;
12758;SDS011;20944;47.048;15.390;2023-04-24T14:51:44;1.80;;;0.30;;
12758;SDS011;20944;47.048;15.390;2023-04-24T14:54:13;0.20;;;0.20;;